createdAt,value
2019-05-29T00:03:12.814Z,1.30
2019-05-29T00:07:58.486Z,1.60
2019-05-29T00:12:44.240Z,1.30
2019-05-29T00:17:29.926Z,1.40
2019-05-29T00:22:15.604Z,1.87
2019-05-29T00:27:01.376Z,2.20
2019-05-29T00:31:47.064Z,2.40
2019-05-29T00:36:32.752Z,1.87
2019-05-29T00:41:18.471Z,1.87
2019-05-29T00:46:04.251Z,2.43
2019-05-29T00:50:49.996Z,2.83
2019-05-29T00:55:35.718Z,2.57
2019-05-29T01:00:21.955Z,2.00
2019-05-29T01:05:09.698Z,1.30
2019-05-29T01:09:55.747Z,1.33
2019-05-29T01:14:49.539Z,1.40
2019-05-29T01:19:28.779Z,1.67
2019-05-29T01:24:14.911Z,1.47
2019-05-29T01:29:00.693Z,2.30
2019-05-29T01:33:46.461Z,2.13
2019-05-29T01:38:32.140Z,2.17
2019-05-29T01:43:17.846Z,1.80
2019-05-29T01:48:03.585Z,2.23
2019-05-29T01:52:49.254Z,2.20
2019-05-29T01:57:34.967Z,2.10
2019-05-29T02:02:21.872Z,1.60
2019-05-29T02:07:07.906Z,2.10
2019-05-29T02:11:53.635Z,2.93
2019-05-29T02:16:39.288Z,2.47
2019-05-29T02:21:25.024Z,2.47
2019-05-29T02:26:10.753Z,1.80
2019-05-29T02:30:56.518Z,2.33
2019-05-29T02:35:42.248Z,2.20
2019-05-29T02:40:30.036Z,2.30
2019-05-29T02:45:15.768Z,1.63
2019-05-29T02:50:01.449Z,2.13
2019-05-29T02:54:47.170Z,2.40
2019-05-29T02:59:32.888Z,1.97
2019-05-29T03:04:18.617Z,1.40
2019-05-29T03:09:06.486Z,1.43
2019-05-29T03:13:52.628Z,1.70
2019-05-29T03:18:39.025Z,1.60
2019-05-29T03:23:26.438Z,1.40
2019-05-29T03:28:12.100Z,1.40
2019-05-29T03:32:57.816Z,1.77
2019-05-29T03:37:43.674Z,1.67
2019-05-29T03:42:30.373Z,2.00
2019-05-29T03:47:16.247Z,1.90
2019-05-29T03:52:02.093Z,2.00
2019-05-29T03:56:47.990Z,2.33
2019-05-29T04:01:35.338Z,1.67
2019-05-29T04:06:21.202Z,1.63
2019-05-29T04:11:07.776Z,1.70
2019-05-29T04:15:55.387Z,1.60
2019-05-29T04:20:42.460Z,1.60
2019-05-29T04:25:35.421Z,1.40
2019-05-29T04:30:19.067Z,2.00
2019-05-29T04:35:08.258Z,2.07
2019-05-29T04:39:54.122Z,2.10
2019-05-29T04:44:41.139Z,2.00
2019-05-29T04:49:29.020Z,1.67
2019-05-29T04:54:14.680Z,1.80
2019-05-29T04:59:00.432Z,1.80
2019-05-29T05:03:46.667Z,1.83
2019-05-29T05:08:33.352Z,2.20
2019-05-29T05:13:20.348Z,2.47
2019-05-29T05:18:07.594Z,2.20
2019-05-29T05:22:53.355Z,2.10
2019-05-29T05:27:39.097Z,2.10
2019-05-29T05:32:24.838Z,1.90
2019-05-29T05:37:10.597Z,2.37
2019-05-29T05:41:56.303Z,2.50
2019-05-29T05:46:42.175Z,2.43
2019-05-29T05:51:31.231Z,2.57
2019-05-29T05:56:17.218Z,2.50
2019-05-29T06:01:02.953Z,3.37
2019-05-29T06:05:48.682Z,3.27
2019-05-29T06:10:34.598Z,3.23
2019-05-29T06:15:20.569Z,3.30
2019-05-29T06:20:06.757Z,4.50
2019-05-29T06:24:52.469Z,7.77
2019-05-29T06:29:39.346Z,6.23
2019-05-29T06:34:25.142Z,6.77
2019-05-29T06:39:11.055Z,5.30
2019-05-29T06:43:56.746Z,5.43
2019-05-29T06:48:57.922Z,5.80
2019-05-29T06:53:30.074Z,4.80
2019-05-29T06:58:15.929Z,4.87
2019-05-29T07:03:01.668Z,3.50
2019-05-29T07:07:47.415Z,3.23
2019-05-29T07:12:33.140Z,3.40
2019-05-29T07:17:18.854Z,3.67
2019-05-29T07:22:04.555Z,2.93
2019-05-29T07:26:50.315Z,3.23
2019-05-29T07:31:36.877Z,3.20
2019-05-29T07:36:22.645Z,3.40
2019-05-29T07:41:08.397Z,3.10
2019-05-29T07:45:54.168Z,3.10
2019-05-29T07:50:40.067Z,2.83
2019-05-29T07:55:26.037Z,3.03
2019-05-29T08:00:12.367Z,2.57
2019-05-29T08:04:58.007Z,3.17
2019-05-29T08:09:43.870Z,4.37
2019-05-29T08:14:29.532Z,4.70
2019-05-29T08:19:15.280Z,4.47
2019-05-29T08:24:01.177Z,5.30
2019-05-29T08:28:46.891Z,4.27
2019-05-29T08:33:32.610Z,4.90
2019-05-29T08:38:18.333Z,3.90
2019-05-29T08:43:04.172Z,3.67
2019-05-29T08:47:49.924Z,3.60
2019-05-29T08:52:35.739Z,2.47
2019-05-29T08:57:21.459Z,2.43
2019-05-29T09:02:07.300Z,1.90
2019-05-29T09:06:53.499Z,1.90
2019-05-29T09:11:39.591Z,0.90
2019-05-29T09:16:25.415Z,1.53
2019-05-29T09:21:13.768Z,1.40
2019-05-29T09:26:13.666Z,0.87
2019-05-29T09:30:46.945Z,0.50
2019-05-29T09:35:33.491Z,1.50
2019-05-29T09:40:21.038Z,0.80
2019-05-29T09:45:07.470Z,0.50
2019-05-29T09:49:53.702Z,0.70
2019-05-29T09:54:39.956Z,0.83
2019-05-29T09:59:26.451Z,0.90
2019-05-29T10:04:12.622Z,1.90
2019-05-29T10:09:00.047Z,2.40
2019-05-29T10:13:46.555Z,3.20
2019-05-29T10:18:33.105Z,2.10
2019-05-29T10:23:20.192Z,3.00
2019-05-29T10:28:06.748Z,3.40
2019-05-29T10:32:53.091Z,4.20
2019-05-29T10:37:39.353Z,3.40
2019-05-29T10:42:25.629Z,4.10
2019-05-29T10:47:12.751Z,4.53
2019-05-29T10:52:13.938Z,6.13
2019-05-29T10:56:46.945Z,3.00
2019-05-29T11:01:33.559Z,4.53
2019-05-29T11:06:19.831Z,3.43
2019-05-29T11:11:06.336Z,1.50
2019-05-29T11:15:52.817Z,1.73
2019-05-29T11:20:39.329Z,2.13
2019-05-29T11:25:27.679Z,1.90
2019-05-29T11:30:13.862Z,1.83
2019-05-29T11:35:02.184Z,1.20
2019-05-29T11:39:48.438Z,1.13
2019-05-29T11:44:35.369Z,1.63
2019-05-29T11:49:21.685Z,2.10
2019-05-29T11:54:07.976Z,2.20
2019-05-29T11:58:54.807Z,3.40
2019-05-29T12:04:05.568Z,2.47
2019-05-29T12:08:29.174Z,2.10
2019-05-29T12:13:15.558Z,1.63
2019-05-29T12:18:22.192Z,1.83
2019-05-29T12:23:12.960Z,1.83
2019-05-29T12:27:38.238Z,1.90
2019-05-29T12:32:24.753Z,2.00
2019-05-29T12:37:11.837Z,1.20
2019-05-29T12:41:59.815Z,1.33
2019-05-29T12:46:47.031Z,1.70
2019-05-29T12:51:34.588Z,2.07
2019-05-29T12:56:20.916Z,1.60
2019-05-29T13:01:10.889Z,1.80
2019-05-29T13:05:58.246Z,1.60
2019-05-29T13:10:48.436Z,1.33
2019-05-29T13:15:35.948Z,1.80
2019-05-29T13:20:23.113Z,1.90
2019-05-29T13:25:12.154Z,1.50
2019-05-29T13:30:00.613Z,1.90
2019-05-29T13:34:46.722Z,2.30
2019-05-29T13:39:33.042Z,1.97
2019-05-29T13:44:19.749Z,2.13
2019-05-29T13:49:07.873Z,2.10
2019-05-29T13:54:03.562Z,1.77
2019-05-29T13:58:45.024Z,2.07
2019-05-29T14:03:31.486Z,2.07
2019-05-29T14:08:18.128Z,1.80
2019-05-29T14:13:05.252Z,2.00
2019-05-29T14:17:51.738Z,2.17
2019-05-29T14:22:38.017Z,2.17
2019-05-29T14:27:24.841Z,2.27
2019-05-29T14:32:13.301Z,3.13
2019-05-29T14:37:02.723Z,2.73
2019-05-29T14:41:48.572Z,2.77
2019-05-29T14:46:35.298Z,2.10
2019-05-29T14:51:22.034Z,2.40
2019-05-29T14:56:09.133Z,2.60
2019-05-29T15:00:55.985Z,3.60
2019-05-29T15:05:43.006Z,7.70
2019-05-29T15:10:29.716Z,3.60
2019-05-29T15:15:16.878Z,4.03
2019-05-29T15:20:03.733Z,4.70
2019-05-29T15:25:04.587Z,4.10
2019-05-29T15:29:41.556Z,5.20
2019-05-29T15:34:28.289Z,3.87
2019-05-29T15:39:16.887Z,3.20
2019-05-29T15:44:04.412Z,4.13
2019-05-29T15:48:52.026Z,4.10
2019-05-29T15:53:38.931Z,5.37
2019-05-29T15:58:25.314Z,5.33
2019-05-29T16:03:13.608Z,5.40
2019-05-29T16:08:00.677Z,6.20
2019-05-29T16:12:47.107Z,5.43
2019-05-29T16:17:34.279Z,5.63
2019-05-29T16:22:20.674Z,5.70
2019-05-29T16:27:08.982Z,5.23
2019-05-29T16:31:55.842Z,4.80
2019-05-29T16:36:43.488Z,4.77
2019-05-29T16:41:31.024Z,4.70
2019-05-29T16:46:20.690Z,4.53
2019-05-29T16:51:05.715Z,4.70
2019-05-29T16:55:54.168Z,5.30
2019-05-29T17:00:40.692Z,5.40
2019-05-29T17:05:27.470Z,5.27
2019-05-29T17:10:14.621Z,5.77
2019-05-29T17:15:01.832Z,6.00
2019-05-29T17:19:48.523Z,5.07
2019-05-29T17:24:36.075Z,5.50
2019-05-29T17:29:22.958Z,6.30
2019-05-29T17:34:09.136Z,6.53
2019-05-29T17:38:55.454Z,6.43
2019-05-29T17:43:41.894Z,6.73
2019-05-29T17:48:28.299Z,6.20
2019-05-29T17:53:15.758Z,6.47
2019-05-29T17:58:02.177Z,6.37
2019-05-29T18:02:52.303Z,4.50
2019-05-29T18:07:36.993Z,3.10
2019-05-29T18:12:23.488Z,3.07
2019-05-29T18:17:10.050Z,2.90
2019-05-29T18:21:56.396Z,3.17
2019-05-29T18:26:47.225Z,3.17
2019-05-29T18:31:30.730Z,3.23
2019-05-29T18:36:18.786Z,3.33
2019-05-29T18:41:07.209Z,3.40
2019-05-29T18:45:53.937Z,4.30
2019-05-29T18:50:44.154Z,4.80
2019-05-29T18:55:29.011Z,5.40
2019-05-29T19:00:17.240Z,5.33
2019-05-29T19:05:03.706Z,5.80
2019-05-29T19:09:50.143Z,6.43
2019-05-29T19:14:36.672Z,6.03
2019-05-29T19:19:23.938Z,6.43
2019-05-29T19:24:12.696Z,6.43
2019-05-29T19:28:59.214Z,5.80
2019-05-29T19:33:45.750Z,4.90
2019-05-29T19:38:31.965Z,5.23
2019-05-29T19:43:18.688Z,5.67
2019-05-29T19:48:05.795Z,5.73
2019-05-29T19:52:52.659Z,6.33
2019-05-29T19:57:54.596Z,5.50
2019-05-29T20:02:28.497Z,5.17
2019-05-29T20:07:14.572Z,5.30
2019-05-29T20:12:00.880Z,4.63
2019-05-29T20:16:47.537Z,4.23
2019-05-29T20:21:34.778Z,4.40
2019-05-29T20:26:21.606Z,5.80
2019-05-29T20:31:11.774Z,5.77
2019-05-29T20:35:56.417Z,5.57
2019-05-29T20:40:43.289Z,7.10
2019-05-29T20:45:31.428Z,5.70
2019-05-29T20:50:18.605Z,5.97
2019-05-29T20:55:07.127Z,6.10
2019-05-29T20:59:53.728Z,7.60
2019-05-29T21:04:40.682Z,6.80
2019-05-29T21:09:27.348Z,6.80
2019-05-29T21:14:13.716Z,6.63
2019-05-29T21:19:00.295Z,6.93
2019-05-29T21:23:46.381Z,7.50
2019-05-29T21:28:41.769Z,7.03
2019-05-29T21:33:20.631Z,6.43
2019-05-29T21:38:06.890Z,7.30
2019-05-29T21:42:53.454Z,7.20
2019-05-29T21:47:40.971Z,6.67
2019-05-29T21:52:27.692Z,5.50
2019-05-29T21:57:14.074Z,6.23
2019-05-29T22:02:00.361Z,6.07
2019-05-29T22:06:46.889Z,6.23
2019-05-29T22:11:32.962Z,6.00
2019-05-29T22:16:19.329Z,6.40
2019-05-29T22:21:05.660Z,5.77
2019-05-29T22:25:53.129Z,6.40
2019-05-29T22:30:40.319Z,6.30
2019-05-29T22:35:27.107Z,6.00
2019-05-29T22:40:14.056Z,5.77
2019-05-29T22:45:02.537Z,6.20
2019-05-29T22:49:48.885Z,6.97
2019-05-29T22:54:35.332Z,6.97
2019-05-29T22:59:31.428Z,6.00
2019-05-29T23:04:09.137Z,6.00
2019-05-29T23:08:56.230Z,5.90
2019-05-29T23:13:42.742Z,5.50
2019-05-29T23:18:29.538Z,6.10
2019-05-29T23:23:16.130Z,7.77
2019-05-29T23:28:03.232Z,7.70
2019-05-29T23:32:49.810Z,6.50
2019-05-29T23:37:35.848Z,8.17
2019-05-29T23:42:21.726Z,7.90
2019-05-29T23:47:07.803Z,6.97
2019-05-29T23:51:53.754Z,7.90
2019-05-29T23:56:39.589Z,7.97
